createdAt,value
2018-11-29T00:00:36.490Z,90.73
2018-11-29T00:03:05.887Z,90.58
2018-11-29T00:05:34.446Z,90.40
2018-11-29T00:08:03.016Z,90.04
2018-11-29T00:10:31.586Z,90.38
2018-11-29T00:13:00.170Z,89.97
2018-11-29T00:15:28.721Z,89.85
2018-11-29T00:17:57.216Z,89.47
2018-11-29T00:20:25.760Z,89.47
2018-11-29T00:22:54.240Z,89.69
2018-11-29T00:25:22.780Z,90.33
2018-11-29T00:27:51.339Z,91.16
2018-11-29T00:30:20.989Z,91.83
2018-11-29T00:32:49.819Z,92.17
2018-11-29T00:35:18.525Z,92.83
2018-11-29T00:37:47.256Z,93.71
2018-11-29T00:40:22.576Z,94.36
2018-11-29T00:42:51.639Z,94.89
2018-11-29T00:45:22.839Z,94.97
2018-11-29T00:47:51.706Z,94.76
2018-11-29T00:50:20.740Z,94.93
2018-11-29T00:52:50.011Z,94.95
2018-11-29T00:55:19.469Z,94.83
2018-11-29T00:57:48.025Z,93.89
2018-11-29T01:00:18.596Z,94.26
2018-11-29T01:02:47.167Z,94.02
2018-11-29T01:05:15.695Z,93.90
2018-11-29T01:07:44.255Z,94.05
2018-11-29T01:10:14.521Z,93.89
2018-11-29T01:12:43.164Z,93.88
2018-11-29T01:15:13.445Z,94.12
2018-11-29T01:17:42.052Z,94.22
2018-11-29T01:20:14.363Z,94.22
2018-11-29T01:22:42.907Z,94.08
2018-11-29T01:25:12.276Z,94.59
2018-11-29T01:27:41.007Z,94.63
2018-11-29T01:30:11.610Z,94.53
2018-11-29T01:32:40.106Z,94.83
2018-11-29T01:35:09.619Z,95.05
2018-11-29T01:37:38.290Z,94.78
2018-11-29T01:40:10.008Z,95.07
2018-11-29T01:42:38.552Z,94.70
2018-11-29T01:45:07.337Z,94.55
2018-11-29T01:47:35.830Z,94.82
2018-11-29T01:50:04.543Z,94.48
2018-11-29T01:52:33.167Z,94.51
2018-11-29T01:55:01.660Z,94.60
2018-11-29T01:57:30.188Z,94.56
2018-11-29T01:59:58.796Z,94.14
2018-11-29T02:02:27.311Z,94.45
2018-11-29T02:04:55.926Z,94.92
2018-11-29T02:07:24.413Z,95.29
2018-11-29T02:09:57.200Z,96.24
2018-11-29T02:12:25.737Z,95.91
2018-11-29T02:14:54.236Z,96.04
2018-11-29T02:17:22.751Z,96.35
2018-11-29T02:19:51.365Z,96.18
2018-11-29T02:22:19.884Z,96.44
2018-11-29T02:24:48.442Z,96.46
2018-11-29T02:27:16.967Z,96.35
2018-11-29T02:29:45.548Z,96.54
2018-11-29T02:32:14.293Z,96.38
2018-11-29T02:34:42.787Z,96.73
2018-11-29T02:37:11.291Z,96.67
2018-11-29T02:39:39.875Z,96.58
2018-11-29T02:42:08.360Z,96.50
2018-11-29T02:44:37.025Z,96.53
2018-11-29T02:47:05.585Z,96.82
2018-11-29T02:49:34.105Z,96.20
2018-11-29T02:52:02.614Z,96.34
2018-11-29T02:54:31.186Z,96.18
2018-11-29T02:56:59.679Z,96.43
2018-11-29T02:59:28.339Z,96.18
2018-11-29T03:01:57.024Z,96.04
2018-11-29T03:04:25.525Z,96.08
2018-11-29T03:06:54.065Z,95.76
2018-11-29T03:09:22.576Z,95.44
2018-11-29T03:11:51.080Z,95.48
2018-11-29T03:14:19.627Z,95.76
2018-11-29T03:16:48.166Z,95.55
2018-11-29T03:19:16.749Z,95.62
2018-11-29T03:21:45.242Z,95.42
2018-11-29T03:24:13.871Z,95.48
2018-11-29T03:26:42.443Z,95.63
2018-11-29T03:29:10.999Z,95.64
2018-11-29T03:31:39.602Z,95.34
2018-11-29T03:34:08.147Z,95.48
2018-11-29T03:36:36.841Z,95.81
2018-11-29T03:39:07.220Z,95.55
2018-11-29T03:41:36.200Z,95.78
2018-11-29T03:44:04.883Z,96.03
2018-11-29T03:46:33.420Z,95.90
2018-11-29T03:49:01.987Z,96.74
2018-11-29T03:51:30.464Z,96.89
2018-11-29T03:53:58.989Z,96.96
2018-11-29T03:56:27.681Z,97.31
2018-11-29T03:58:56.194Z,96.99
2018-11-29T04:01:24.740Z,96.98
2018-11-29T04:03:53.241Z,97.37
2018-11-29T04:06:21.766Z,97.50
2018-11-29T04:08:50.292Z,97.71
2018-11-29T04:11:18.988Z,97.52
2018-11-29T04:13:47.503Z,97.25
2018-11-29T04:16:16.084Z,97.93
2018-11-29T04:18:44.758Z,98.00
2018-11-29T04:21:13.255Z,98.06
2018-11-29T04:23:41.834Z,98.06
2018-11-29T04:26:10.432Z,98.02
2018-11-29T04:28:38.939Z,98.30
2018-11-29T04:31:07.519Z,98.85
2018-11-29T04:36:08.412Z,98.82
2018-11-29T04:38:37.069Z,98.88
2018-11-29T04:41:06.108Z,98.85
2018-11-29T04:43:34.759Z,98.72
2018-11-29T04:46:43.857Z,99.01
2018-11-29T04:49:12.472Z,98.88
2018-11-29T04:51:41.025Z,98.75
2018-11-29T04:54:10.186Z,98.58
2018-11-29T04:56:38.757Z,98.77
2018-11-29T04:59:07.504Z,98.47
2018-11-29T05:01:36.196Z,98.32
2018-11-29T05:04:04.800Z,98.65
2018-11-29T05:06:33.327Z,98.38
2018-11-29T05:09:01.995Z,98.55
2018-11-29T05:11:30.592Z,98.61
2018-11-29T05:13:59.109Z,98.13
2018-11-29T05:16:27.709Z,98.32
2018-11-29T05:18:56.281Z,97.92
2018-11-29T05:21:24.831Z,98.22
2018-11-29T05:23:53.331Z,98.42
2018-11-29T05:26:21.955Z,98.38
2018-11-29T05:28:50.492Z,98.52
2018-11-29T05:31:19.024Z,98.48
2018-11-29T05:33:47.632Z,98.42
2018-11-29T05:36:16.161Z,98.07
2018-11-29T05:38:44.748Z,98.54
2018-11-29T05:41:13.288Z,97.77
2018-11-29T05:43:41.788Z,97.92
2018-11-29T05:46:10.335Z,98.03
2018-11-29T05:48:38.899Z,97.63
2018-11-29T05:51:07.616Z,97.42
2018-11-29T05:53:36.186Z,97.63
2018-11-29T05:56:04.733Z,97.53
2018-11-29T05:58:33.380Z,97.94
2018-11-29T06:01:04.683Z,97.45
2018-11-29T06:03:33.355Z,97.75
2018-11-29T06:06:01.933Z,97.36
2018-11-29T06:08:30.524Z,97.55
2018-11-29T06:10:59.140Z,97.42
2018-11-29T06:13:27.778Z,97.82
2018-11-29T06:15:56.424Z,98.26
2018-11-29T06:18:25.027Z,97.83
2018-11-29T06:20:53.541Z,97.68
2018-11-29T06:23:22.233Z,97.94
2018-11-29T06:25:50.816Z,97.70
2018-11-29T06:28:19.364Z,97.66
2018-11-29T06:30:47.956Z,97.63
2018-11-29T06:33:16.491Z,97.73
2018-11-29T06:35:45.064Z,97.67
2018-11-29T06:38:13.627Z,96.95
2018-11-29T06:40:42.135Z,97.12
2018-11-29T06:43:10.652Z,96.99
2018-11-29T06:45:39.308Z,97.00
2018-11-29T06:48:08.105Z,96.78
2018-11-29T06:50:36.673Z,97.08
2018-11-29T06:53:09.668Z,96.65
2018-11-29T06:55:38.328Z,96.30
2018-11-29T06:58:07.200Z,96.33
2018-11-29T07:00:35.880Z,96.56
2018-11-29T07:03:04.449Z,96.05
2018-11-29T07:05:39.320Z,96.14
2018-11-29T07:08:07.923Z,96.14
2018-11-29T07:10:36.667Z,95.84
2018-11-29T07:13:06.719Z,95.68
2018-11-29T07:15:35.255Z,95.83
2018-11-29T07:18:03.881Z,95.75
2018-11-29T07:20:32.464Z,95.82
2018-11-29T07:23:01.034Z,95.77
2018-11-29T07:25:29.538Z,95.53
2018-11-29T07:27:58.041Z,95.86
2018-11-29T07:30:26.643Z,95.51
2018-11-29T07:32:55.325Z,95.98
2018-11-29T07:35:24.052Z,95.64
2018-11-29T07:37:52.585Z,95.61
2018-11-29T07:40:21.100Z,95.48
2018-11-29T07:42:51.819Z,95.72
2018-11-29T07:45:21.047Z,95.09
2018-11-29T07:47:49.603Z,94.83
2018-11-29T07:50:19.356Z,95.18
2018-11-29T07:52:48.015Z,95.01
2018-11-29T07:55:17.836Z,95.00
2018-11-29T07:57:47.353Z,95.38
2018-11-29T08:01:19.024Z,94.63
2018-11-29T08:03:47.744Z,94.85
2018-11-29T08:06:16.358Z,94.85
2018-11-29T08:08:44.980Z,94.90
2018-11-29T08:11:13.489Z,94.98
2018-11-29T08:13:42.059Z,94.82
2018-11-29T08:16:10.711Z,94.40
2018-11-29T08:18:39.238Z,94.64
2018-11-29T08:21:07.737Z,94.42
2018-11-29T08:23:39.099Z,93.95
2018-11-29T08:26:07.707Z,94.25
2018-11-29T08:28:36.283Z,93.79
2018-11-29T08:31:04.895Z,94.12
2018-11-29T08:33:33.400Z,94.26
2018-11-29T08:36:01.944Z,94.36
2018-11-29T08:38:30.472Z,94.21
2018-11-29T08:40:58.951Z,93.80
2018-11-29T08:43:27.553Z,94.32
2018-11-29T08:45:56.075Z,94.99
2018-11-29T08:48:24.552Z,95.38
2018-11-29T08:50:53.341Z,95.88
2018-11-29T08:53:21.899Z,95.92
2018-11-29T08:55:50.485Z,95.42
2018-11-29T08:58:19.040Z,96.02
2018-11-29T09:00:47.571Z,95.68
2018-11-29T09:03:16.181Z,95.46
2018-11-29T09:05:44.776Z,95.25
2018-11-29T09:08:13.605Z,95.23
2018-11-29T09:10:42.092Z,95.31
2018-11-29T09:13:10.708Z,95.38
2018-11-29T09:15:39.208Z,95.29
2018-11-29T09:18:07.859Z,95.64
2018-11-29T09:20:36.460Z,95.92
2018-11-29T09:23:05.961Z,95.82
2018-11-29T09:25:34.840Z,95.88
2018-11-29T09:28:03.435Z,96.01
2018-11-29T09:30:32.130Z,95.72
2018-11-29T09:33:00.768Z,95.24
2018-11-29T09:35:29.307Z,95.00
2018-11-29T09:37:57.865Z,95.26
2018-11-29T09:40:26.345Z,95.16
2018-11-29T09:42:54.962Z,94.52
2018-11-29T09:45:24.002Z,94.68
2018-11-29T09:47:55.446Z,94.56
2018-11-29T09:50:24.687Z,95.20
2018-11-29T09:52:53.215Z,94.86
2018-11-29T09:55:21.887Z,94.48
2018-11-29T09:57:51.057Z,94.61
2018-11-29T10:00:27.711Z,94.55
2018-11-29T10:02:54.828Z,94.17
2018-11-29T10:05:23.487Z,93.78
2018-11-29T10:07:52.037Z,94.06
2018-11-29T10:10:20.536Z,93.73
2018-11-29T10:12:49.078Z,93.62
2018-11-29T10:15:17.579Z,93.79
2018-11-29T10:17:46.092Z,93.15
2018-11-29T10:20:14.771Z,93.43
2018-11-29T10:22:43.688Z,93.91
2018-11-29T10:25:14.199Z,93.68
2018-11-29T10:27:46.149Z,93.94
2018-11-29T10:30:26.083Z,94.35
2018-11-29T10:32:54.729Z,93.94
2018-11-29T10:35:23.307Z,93.30
2018-11-29T10:37:51.830Z,94.25
2018-11-29T10:40:20.368Z,93.57
2018-11-29T10:42:49.477Z,93.82
2018-11-29T10:45:20.161Z,93.44
2018-11-29T10:47:52.532Z,93.79
2018-11-29T10:50:19.668Z,93.17
2018-11-29T10:52:48.923Z,93.73
2018-11-29T10:55:19.055Z,92.91
2018-11-29T10:57:47.924Z,93.20
2018-11-29T11:00:27.103Z,93.37
2018-11-29T11:03:07.641Z,93.49
2018-11-29T11:05:37.168Z,93.38
2018-11-29T11:08:08.542Z,93.38
2018-11-29T11:10:36.467Z,93.50
2018-11-29T11:13:05.936Z,93.70
2018-11-29T11:15:34.822Z,93.51
2018-11-29T11:18:04.051Z,92.98
2018-11-29T11:20:33.053Z,92.80
2018-11-29T11:23:02.745Z,92.95
2018-11-29T11:25:31.836Z,92.88
2018-11-29T11:28:00.848Z,93.06
2018-11-29T11:30:30.431Z,92.60
2018-11-29T11:33:00.455Z,91.91
2018-11-29T11:35:31.176Z,92.39
2018-11-29T11:38:00.705Z,91.99
2018-11-29T11:40:29.678Z,92.07
2018-11-29T11:42:58.220Z,92.31
2018-11-29T11:45:27.360Z,92.17
2018-11-29T11:48:03.012Z,92.08
2018-11-29T11:50:25.869Z,92.00
2018-11-29T11:52:55.587Z,91.80
2018-11-29T11:55:30.069Z,91.63
2018-11-29T11:57:53.681Z,91.97
2018-11-29T12:00:24.614Z,91.54
2018-11-29T12:03:02.785Z,91.13
2018-11-29T12:05:32.577Z,91.00
2018-11-29T12:08:01.542Z,90.17
2018-11-29T12:10:30.740Z,90.38
2018-11-29T12:13:00.366Z,90.17
2018-11-29T12:15:30.016Z,89.57
2018-11-29T12:18:02.675Z,89.45
2018-11-29T12:20:32.754Z,89.56
2018-11-29T12:23:01.921Z,88.92
2018-11-29T12:25:31.500Z,88.07
2018-11-29T12:28:01.388Z,88.48
2018-11-29T12:30:33.835Z,88.67
2018-11-29T12:33:05.316Z,88.09
2018-11-29T12:35:36.512Z,87.88
2018-11-29T12:38:06.141Z,88.17
2018-11-29T12:40:35.474Z,87.90
2018-11-29T12:43:06.032Z,88.67
2018-11-29T12:45:35.866Z,88.59
2018-11-29T12:48:07.025Z,88.25
2018-11-29T12:50:40.445Z,88.77
2018-11-29T12:53:09.515Z,88.38
2018-11-29T12:55:41.738Z,88.77
2018-11-29T12:58:10.993Z,88.87
2018-11-29T13:00:39.558Z,89.10
2018-11-29T13:03:08.202Z,89.58
2018-11-29T13:05:37.872Z,89.73
2018-11-29T13:08:07.308Z,89.48
2018-11-29T13:10:35.807Z,89.61
2018-11-29T13:13:04.476Z,89.31
2018-11-29T13:15:34.096Z,88.72
2018-11-29T13:18:04.233Z,88.96
2018-11-29T13:20:32.867Z,88.93
2018-11-29T13:23:01.425Z,88.88
2018-11-29T13:25:30.160Z,88.92
2018-11-29T13:27:58.896Z,89.00
2018-11-29T13:30:27.517Z,89.09
2018-11-29T13:32:57.013Z,88.26
2018-11-29T13:35:30.121Z,88.78
2018-11-29T13:38:02.065Z,88.52
2018-11-29T13:40:30.743Z,88.52
2018-11-29T13:42:59.375Z,88.41
2018-11-29T13:45:28.032Z,87.87
2018-11-29T13:47:56.702Z,88.66
2018-11-29T13:50:25.304Z,88.24
2018-11-29T13:52:54.011Z,88.57
2018-11-29T13:55:22.573Z,88.69
2018-11-29T13:57:51.552Z,87.85
2018-11-29T14:00:21.150Z,87.44
2018-11-29T14:02:52.739Z,87.53
2018-11-29T14:05:21.200Z,87.26
2018-11-29T14:07:49.744Z,87.54
2018-11-29T14:10:19.207Z,87.35
2018-11-29T14:12:48.648Z,87.16
2018-11-29T14:15:20.204Z,87.42
2018-11-29T14:17:48.810Z,86.87
2018-11-29T14:20:17.404Z,87.04
2018-11-29T14:22:46.003Z,86.76
2018-11-29T14:25:15.417Z,86.94
2018-11-29T14:27:45.204Z,86.94
2018-11-29T14:30:16.608Z,86.48
2018-11-29T14:32:45.147Z,86.54
2018-11-29T14:35:13.688Z,86.89
2018-11-29T14:37:42.297Z,86.61
2018-11-29T14:40:21.236Z,86.48
2018-11-29T14:42:49.764Z,86.14
2018-11-29T14:45:19.264Z,85.68
2018-11-29T14:47:47.900Z,85.63
2018-11-29T14:50:37.755Z,85.61
2018-11-29T14:53:07.589Z,86.08
2018-11-29T14:55:36.569Z,85.46
2018-11-29T14:58:05.470Z,85.71
2018-11-29T15:00:34.144Z,85.51
2018-11-29T15:03:04.241Z,85.10
2018-11-29T15:05:32.967Z,85.60
2018-11-29T15:08:01.529Z,85.71
2018-11-29T15:10:30.072Z,85.59
2018-11-29T15:12:58.581Z,85.17
2018-11-29T15:15:27.084Z,84.71
2018-11-29T15:17:55.662Z,84.96
2018-11-29T15:20:27.337Z,85.66
2018-11-29T15:22:55.420Z,84.42
2018-11-29T15:25:24.000Z,85.01
2018-11-29T15:27:53.015Z,85.14
2018-11-29T15:30:22.744Z,84.99
2018-11-29T15:32:51.282Z,83.73
2018-11-29T15:35:19.900Z,83.87
2018-11-29T15:37:48.421Z,84.24
2018-11-29T15:40:17.698Z,84.18
2018-11-29T15:42:46.428Z,83.29
2018-11-29T15:45:17.139Z,83.66
2018-11-29T15:47:45.644Z,83.57
2018-11-29T15:50:14.958Z,83.07
2018-11-29T15:52:43.457Z,82.36
2018-11-29T15:55:15.637Z,82.73
2018-11-29T15:57:44.591Z,82.19
2018-11-29T16:00:30.371Z,81.95
2018-11-29T16:03:03.820Z,82.45
2018-11-29T16:05:32.399Z,81.61
2018-11-29T16:08:00.913Z,81.04
2018-11-29T16:10:29.439Z,81.54
2018-11-29T16:12:57.971Z,81.62
2018-11-29T16:15:26.503Z,81.26
2018-11-29T16:17:54.981Z,81.10
2018-11-29T16:20:29.770Z,81.04
2018-11-29T16:22:58.340Z,80.65
2018-11-29T16:25:26.975Z,80.44
2018-11-29T16:27:55.479Z,80.80
2018-11-29T16:30:33.058Z,79.64
2018-11-29T16:33:05.073Z,79.82
2018-11-29T16:35:33.670Z,79.91
2018-11-29T16:38:02.124Z,79.43
2018-11-29T16:40:30.683Z,79.31
2018-11-29T16:42:59.211Z,79.04
2018-11-29T16:45:27.899Z,79.47
2018-11-29T16:47:56.392Z,80.38
2018-11-29T16:50:24.868Z,80.25
2018-11-29T16:52:53.451Z,80.73
2018-11-29T16:55:21.954Z,80.26
2018-11-29T16:57:52.498Z,80.48
2018-11-29T17:00:22.915Z,80.72
2018-11-29T17:02:51.547Z,79.84
2018-11-29T17:05:20.111Z,80.39
2018-11-29T17:07:48.671Z,79.58
2018-11-29T17:10:18.340Z,79.50
2018-11-29T17:12:51.436Z,79.69
2018-11-29T17:15:20.232Z,79.93
2018-11-29T17:17:48.781Z,80.20
2018-11-29T17:20:18.119Z,79.87
2018-11-29T17:22:47.672Z,79.56
2018-11-29T17:25:16.263Z,79.19
2018-11-29T17:27:44.813Z,78.43
2018-11-29T17:30:19.131Z,78.83
2018-11-29T17:32:48.048Z,78.96
2018-11-29T17:35:16.521Z,78.94
2018-11-29T17:37:45.024Z,78.71
2018-11-29T17:40:14.572Z,78.65
2018-11-29T17:42:43.159Z,77.62
2018-11-29T17:45:13.994Z,77.87
2018-11-29T17:47:43.535Z,77.78
2018-11-29T17:50:16.429Z,78.32
2018-11-29T17:52:44.993Z,78.18
2018-11-29T17:55:13.578Z,78.35
2018-11-29T17:57:42.155Z,76.82
2018-11-29T18:00:15.076Z,77.09
2018-11-29T18:02:43.592Z,76.48
2018-11-29T18:05:12.122Z,77.45
2018-11-29T18:07:40.784Z,75.96
2018-11-29T18:10:13.568Z,76.44
2018-11-29T18:12:42.219Z,76.00
2018-11-29T18:15:13.453Z,76.62
2018-11-29T18:17:42.160Z,76.38
2018-11-29T18:20:11.744Z,76.19
2018-11-29T18:22:40.468Z,76.10
2018-11-29T18:25:11.202Z,76.58
2018-11-29T18:27:40.316Z,76.05
2018-11-29T18:30:14.201Z,76.42
2018-11-29T18:32:42.772Z,75.90
2018-11-29T18:35:12.117Z,75.96
2018-11-29T18:37:40.795Z,75.71
2018-11-29T18:40:16.876Z,75.34
2018-11-29T18:42:46.689Z,75.34
2018-11-29T18:45:15.816Z,75.67
2018-11-29T18:47:45.277Z,74.91
2018-11-29T18:50:15.821Z,75.07
2018-11-29T18:52:44.364Z,74.81
2018-11-29T18:55:12.963Z,74.67
2018-11-29T18:57:41.512Z,74.64
2018-11-29T19:00:16.268Z,74.75
2018-11-29T19:02:44.819Z,74.99
2018-11-29T19:05:13.688Z,75.58
2018-11-29T19:07:42.284Z,76.32
2018-11-29T19:10:15.584Z,76.89
2018-11-29T19:12:46.548Z,77.50
2018-11-29T19:15:15.098Z,77.05
2018-11-29T19:17:43.583Z,77.70
2018-11-29T19:20:13.591Z,77.59
2018-11-29T19:22:42.184Z,77.41
2018-11-29T19:25:13.993Z,77.70
2018-11-29T19:27:41.690Z,77.95
2018-11-29T19:30:16.166Z,78.44
2018-11-29T19:32:45.728Z,78.05
2018-11-29T19:35:14.249Z,78.24
2018-11-29T19:37:42.764Z,78.12
2018-11-29T19:40:15.236Z,77.70
2018-11-29T19:42:43.750Z,77.28
2018-11-29T19:45:16.021Z,77.84
2018-11-29T19:47:44.562Z,77.54
2018-11-29T19:50:17.030Z,77.34
2018-11-29T19:52:48.605Z,77.52
2018-11-29T19:55:20.552Z,77.76
2018-11-29T19:57:52.009Z,78.01
2018-11-29T20:00:20.680Z,77.99
2018-11-29T20:02:49.954Z,77.71
2018-11-29T20:05:18.588Z,78.49
2018-11-29T20:07:47.153Z,77.65
2018-11-29T20:10:16.695Z,77.98
2018-11-29T20:12:45.995Z,78.18
2018-11-29T20:15:18.507Z,77.87
2018-11-29T20:17:47.281Z,78.39
2018-11-29T20:20:15.814Z,78.28
2018-11-29T20:22:44.400Z,77.01
2018-11-29T20:25:14.094Z,77.53
2018-11-29T20:27:42.629Z,77.28
2018-11-29T20:30:16.168Z,77.41
2018-11-29T20:32:44.833Z,77.44
2018-11-29T20:35:13.605Z,77.41
2018-11-29T20:37:42.272Z,77.92
2018-11-29T20:40:12.767Z,77.14
2018-11-29T20:42:41.356Z,77.04
2018-11-29T20:45:13.365Z,76.87
2018-11-29T20:47:41.976Z,76.82
2018-11-29T20:50:14.812Z,77.19
2018-11-29T20:52:41.813Z,76.97
2018-11-29T20:55:15.064Z,76.91
2018-11-29T20:57:43.592Z,76.52
2018-11-29T21:00:15.152Z,76.30
2018-11-29T21:02:43.713Z,76.76
2018-11-29T21:05:13.495Z,76.63
2018-11-29T21:07:43.212Z,76.33
2018-11-29T21:10:14.361Z,76.13
2018-11-29T21:12:43.037Z,76.35
2018-11-29T21:15:11.641Z,75.67
2018-11-29T21:17:40.247Z,75.72
2018-11-29T21:20:11.397Z,75.84
2018-11-29T21:22:40.043Z,76.34
2018-11-29T21:25:11.820Z,76.72
2018-11-29T21:27:40.403Z,76.60
2018-11-29T21:30:12.311Z,76.52
2018-11-29T21:32:48.025Z,76.94
2018-11-29T21:35:18.965Z,76.73
2018-11-29T21:37:47.745Z,76.56
2018-11-29T21:40:21.795Z,76.48
2018-11-29T21:42:50.744Z,76.27
2018-11-29T21:45:20.327Z,76.05
2018-11-29T21:47:48.886Z,76.08
2018-11-29T21:50:17.432Z,76.11
2018-11-29T21:52:46.545Z,76.35
2018-11-29T21:55:15.392Z,76.58
2018-11-29T21:57:43.983Z,76.03
2018-11-29T22:00:19.518Z,76.22
2018-11-29T22:02:57.972Z,76.92
2018-11-29T22:05:26.602Z,76.07
2018-11-29T22:07:55.177Z,76.22
2018-11-29T22:10:23.860Z,76.85
2018-11-29T22:12:52.375Z,77.12
2018-11-29T22:15:21.220Z,76.51
2018-11-29T22:18:07.587Z,77.34
2018-11-29T22:20:36.726Z,76.89
2018-11-29T22:23:05.570Z,77.37
2018-11-29T22:25:34.272Z,77.20
2018-11-29T22:28:02.840Z,77.54
2018-11-29T22:30:31.439Z,77.15
2018-11-29T22:32:59.993Z,77.44
2018-11-29T22:35:28.628Z,77.30
2018-11-29T22:37:57.227Z,77.45
2018-11-29T22:40:25.747Z,77.45
2018-11-29T22:42:54.302Z,78.05
2018-11-29T22:45:22.924Z,78.22
2018-11-29T22:47:51.541Z,78.19
2018-11-29T22:50:20.021Z,78.47
2018-11-29T22:52:48.589Z,78.81
2018-11-29T22:55:17.111Z,79.10
2018-11-29T22:57:45.663Z,79.21
2018-11-29T23:00:17.735Z,79.93
2018-11-29T23:02:47.080Z,80.11
2018-11-29T23:05:15.607Z,80.19
2018-11-29T23:07:44.325Z,79.86
2018-11-29T23:10:13.200Z,79.47
2018-11-29T23:12:41.701Z,79.78
2018-11-29T23:15:11.496Z,79.92
2018-11-29T23:17:40.051Z,79.82
2018-11-29T23:20:09.970Z,79.90
2018-11-29T23:22:38.774Z,80.22
2018-11-29T23:25:09.147Z,80.58
2018-11-29T23:27:37.644Z,80.34
2018-11-29T23:30:15.055Z,80.47
2018-11-29T23:32:44.037Z,80.21
2018-11-29T23:35:13.594Z,79.90
2018-11-29T23:37:42.108Z,80.67
2018-11-29T23:40:18.767Z,80.46
2018-11-29T23:42:47.451Z,79.32
2018-11-29T23:45:15.992Z,79.26
2018-11-29T23:47:44.515Z,79.49
2018-11-29T23:50:18.096Z,79.32
2018-11-29T23:52:46.980Z,79.49
2018-11-29T23:55:18.822Z,79.41
2018-11-29T23:57:47.335Z,79.64
